Time;durP1;ratioP1;P1;durP2;ratioP2;P2;SDS_P1;SDS_P2;PMS_P1;PMS_P2;Temp;Humidity;BMP_temperature;BMP_pressure;BME280_temperature;BME280_humidity;BME280_pressure;Samples;Min_cycle;Max_cycle;Signal;HPM_P1;HPM_P2
2022/12/12 00:03:08;;;;;;;21.02;9.77;;;-5.40;74.70;;;;;;5012513;28;20041;-86
2022/12/12 00:06:03;;;;;;;15.80;8.07;;;-5.30;74.80;;;;;;5013685;28;20498;-86
2022/12/12 00:09:29;;;;;;;17.50;8.07;;;-5.20;74.50;;;;;;5008056;28;20514;-86
2022/12/12 00:12:43;;;;;;;13.55;7.32;;;-5.10;74.50;;;;;;5013107;28;20065;-86
2022/12/12 00:16:00;;;;;;;14.32;7.78;;;-5.00;73.90;;;;;;4981223;28;20518;-85
2022/12/12 00:19:17;;;;;;;14.73;7.22;;;-5.00;73.10;;;;;;5012078;28;20026;-85
2022/12/12 00:22:36;;;;;;;18.73;8.05;;;-5.00;73.20;;;;;;4998055;28;20025;-85
2022/12/12 00:25:26;;;;;;;14.43;6.93;;;-5.20;71.90;;;;;;5008997;28;20068;-85
2022/12/12 00:27:53;;;;;;;16.70;8.50;;;-5.30;72.70;;;;;;4995251;28;20046;-86
2022/12/12 00:30:43;;;;;;;24.48;10.48;;;-5.40;71.10;;;;;;5013128;28;20112;-86
2022/12/12 00:33:23;;;;;;;24.88;10.43;;;-5.80;72.10;;;;;;5013425;28;20034;-86
2022/12/12 00:36:50;;;;;;;20.55;9.00;;;-5.90;72.70;;;;;;5013555;28;20046;-86
2022/12/12 00:40:17;;;;;;;24.73;10.57;;;-5.90;72.90;;;;;;5013159;28;20360;-86
2022/12/12 00:43:17;;;;;;;24.02;10.68;;;-5.90;73.10;;;;;;5013889;28;20021;-86
2022/12/12 00:45:51;;;;;;;22.98;11.45;;;-5.90;73.20;;;;;;5020083;28;20560;-86
2022/12/12 00:48:40;;;;;;;24.88;10.88;;;-5.90;73.90;;;;;;4999852;28;20062;-85
2022/12/12 00:51:51;;;;;;;21.77;10.10;;;-5.70;73.90;;;;;;5018878;28;20101;-86
2022/12/12 00:55:05;;;;;;;22.73;10.05;;;-5.60;73.60;;;;;;5017361;28;20041;-86
2022/12/12 00:57:58;;;;;;;20.30;9.70;;;-5.40;73.20;;;;;;5012416;28;20045;-85
2022/12/12 01:00:40;;;;;;;18.23;9.48;;;-5.30;72.70;;;;;;5015528;28;20026;-85
2022/12/12 01:03:07;;;;;;;20.33;9.65;;;-5.30;72.00;;;;;;5014625;28;20168;-83
2022/12/12 01:05:36;;;;;;;21.83;10.07;;;-5.20;71.60;;;;;;5014329;28;20033;-84
2022/12/12 01:08:01;;;;;;;18.23;9.50;;;-5.10;71.00;;;;;;5014917;28;20129;-85
2022/12/12 01:10:32;;;;;;;16.83;9.48;;;-5.20;70.50;;;;;;5015429;28;20041;-85
2022/12/12 01:13:18;;;;;;;21.13;9.98;;;-5.20;70.10;;;;;;5015226;28;20018;-85
2022/12/12 01:15:47;;;;;;;19.50;9.70;;;-5.20;69.80;;;;;;5014828;28;20387;-84
2022/12/12 01:18:17;;;;;;;21.48;10.18;;;-5.20;69.50;;;;;;5030714;28;20018;-84
2022/12/12 01:20:51;;;;;;;16.50;8.30;;;-5.30;69.10;;;;;;5019398;28;20038;-84
2022/12/12 01:23:18;;;;;;;23.98;9.70;;;-5.30;69.10;;;;;;5026799;28;20037;-83
2022/12/12 01:25:48;;;;;;;22.17;9.68;;;-5.40;68.90;;;;;;5020509;28;20386;-84
2022/12/12 01:28:41;;;;;;;19.17;8.82;;;-5.40;69.10;;;;;;5015416;28;20506;-86
2022/12/12 01:31:08;;;;;;;19.00;8.95;;;-5.40;69.10;;;;;;5018408;28;20046;-85
2022/12/12 01:34:06;;;;;;;17.85;8.85;;;-5.50;68.70;;;;;;5001738;28;20029;-85
2022/12/12 01:37:04;;;;;;;16.60;8.20;;;-5.50;68.80;;;;;;5018733;28;20026;-84
2022/12/12 01:39:53;;;;;;;16.45;8.95;;;-5.50;68.90;;;;;;5017471;28;20509;-84
2022/12/12 01:42:48;;;;;;;17.60;8.70;;;-5.50;68.60;;;;;;5017036;28;20034;-84
2022/12/12 01:45:54;;;;;;;14.98;7.80;;;-5.50;68.40;;;;;;5002890;28;20140;-84
2022/12/12 01:48:27;;;;;;;17.55;8.32;;;-5.50;68.30;;;;;;5016642;28;20026;-84
2022/12/12 01:51:56;;;;;;;19.70;8.43;;;-5.50;68.20;;;;;;5003692;28;20107;-84
2022/12/12 01:54:54;;;;;;;17.02;7.80;;;-5.50;68.80;;;;;;5017934;28;20474;-85
2022/12/12 01:58:04;;;;;;;15.63;8.05;;;-5.50;67.90;;;;;;5016926;28;20041;-84
2022/12/12 02:00:50;;;;;;;15.10;7.63;;;-5.50;67.50;;;;;;5017992;28;20029;-84
2022/12/12 02:03:16;;;;;;;16.35;7.97;;;-5.60;67.40;;;;;;5017925;28;20049;-85
2022/12/12 02:05:57;;;;;;;16.73;8.18;;;-5.60;67.40;;;;;;5016754;28;20091;-85
2022/12/12 02:08:25;;;;;;;13.23;7.47;;;-5.70;67.50;;;;;;5013487;28;20038;-86
2022/12/12 02:10:53;;;;;;;14.55;7.05;;;-5.70;67.50;;;;;;5000876;28;20068;-86
2022/12/12 02:13:24;;;;;;;12.80;6.07;;;-5.70;67.50;;;;;;4984302;28;20120;-85
2022/12/12 02:16:03;;;;;;;11.43;5.82;;;-5.80;67.30;;;;;;5000164;28;20077;-85
2022/12/12 02:18:54;;;;;;;8.95;5.03;;;-5.90;67.10;;;;;;5017220;28;20494;-84
2022/12/12 02:22:04;;;;;;;11.82;6.20;;;-6.10;67.20;;;;;;5016042;28;20022;-86
2022/12/12 02:25:21;;;;;;;11.90;6.22;;;-6.20;67.80;;;;;;5016811;28;20132;-84
2022/12/12 02:27:48;;;;;;;;;;;-6.20;68.40;;;;;;5033125;28;20390;-86
2022/12/12 02:30:20;;;;;;;12.75;5.38;;;-6.30;69.60;;;;;;5032448;28;20390;-86
2022/12/12 02:32:46;;;;;;;13.23;5.85;;;-6.30;70.70;;;;;;5031983;28;20022;-86
2022/12/12 02:35:52;;;;;;;11.43;6.22;;;-6.40;70.50;;;;;;5017351;28;20036;-84
2022/12/12 02:39:02;;;;;;;10.82;6.47;;;-6.50;70.50;;;;;;5016422;28;20521;-87
2022/12/12 02:41:53;;;;;;;10.48;5.60;;;-6.40;70.40;;;;;;5015715;28;20033;-85
2022/12/12 02:44:48;;;;;;;10.57;5.50;;;-6.40;70.30;;;;;;5027313;28;20502;-87
2022/12/12 02:47:23;;;;;;;11.18;5.45;;;-6.30;69.70;;;;;;5017377;28;20053;-87
2022/12/12 02:50:22;;;;;;;12.65;5.60;;;-6.30;69.50;;;;;;5017048;28;20025;-86
2022/12/12 02:52:49;;;;;;;9.60;5.20;;;-6.20;69.00;;;;;;5015862;28;20117;-87
2022/12/12 02:55:17;;;;;;;10.48;5.18;;;-6.20;68.90;;;;;;5016382;28;20486;-87
2022/12/12 02:57:51;;;;;;;7.38;4.47;;;-6.20;68.80;;;;;;5017294;28;20030;-84
2022/12/12 03:00:22;;;;;;;8.25;4.57;;;-6.10;69.00;;;;;;5015997;28;20064;-84
2022/12/12 03:09:41;;;;;;;9.98;4.75;;;-6.20;67.50;;;;;;4993623;28;20044;-86
2022/12/12 03:12:49;;;;;;;9.45;4.75;;;-6.30;68.00;;;;;;5035680;28;20026;-85
2022/12/12 03:15:29;;;;;;;10.77;5.20;;;-6.20;67.50;;;;;;5027407;28;20390;-85
2022/12/12 03:18:32;;;;;;;9.98;4.78;;;-6.30;67.00;;;;;;5026823;28;20038;-85
2022/12/12 03:21:12;;;;;;;9.00;4.57;;;-6.20;67.00;;;;;;5033970;28;20034;-87
2022/12/12 03:23:46;;;;;;;9.82;4.90;;;-6.20;66.70;;;;;;5033599;28;20092;-86
2022/12/12 03:26:30;;;;;;;9.57;5.38;;;-6.20;66.70;;;;;;5032858;28;20034;-85
2022/12/12 03:29:08;;;;;;;13.27;7.28;;;-6.20;66.60;;;;;;5015681;28;20451;-86
2022/12/12 03:31:39;;;;;;;22.88;10.40;;;-6.20;66.90;;;;;;5032808;28;20037;-86
2022/12/12 03:34:36;;;;;;;27.85;12.07;;;-6.20;68.70;;;;;;4999567;28;20042;-86
2022/12/12 03:37:50;;;;;;;27.13;12.13;;;-6.30;70.40;;;;;;5016844;28;20072;-85
2022/12/12 03:40:42;;;;;;;24.70;11.15;;;-6.30;71.80;;;;;;5027507;28;20034;-85
2022/12/12 03:43:18;;;;;;;40.30;14.07;;;-6.30;72.60;;;;;;5006429;28;20042;-84
2022/12/12 03:46:16;;;;;;;115.50;16.10;;;-6.50;74.40;;;;;;5014390;28;20037;-83
2022/12/12 03:48:56;;;;;;;45.10;15.52;;;-6.60;75.70;;;;;;5014418;28;20052;-84
2022/12/12 03:51:29;;;;;;;30.83;13.52;;;-6.70;76.20;;;;;;5012116;28;20548;-82
2022/12/12 03:54:06;;;;;;;35.53;13.90;;;-6.60;76.60;;;;;;4997969;28;20506;-82
2022/12/12 03:56:58;;;;;;;40.10;14.30;;;-6.60;76.40;;;;;;5013455;28;20033;-82
2022/12/12 03:59:29;;;;;;;34.83;14.65;;;-6.60;76.50;;;;;;5014198;28;20029;-81
2022/12/12 04:02:01;;;;;;;32.05;13.55;;;-6.60;76.30;;;;;;5013885;28;20104;-82
2022/12/12 04:04:35;;;;;;;32.65;13.27;;;-6.60;76.10;;;;;;5013917;28;20041;-82
2022/12/12 04:07:43;;;;;;;35.70;14.60;;;-6.60;76.80;;;;;;5013794;28;20117;-83
2022/12/12 04:13:35;;;;;;;36.53;15.45;;;-6.60;75.00;;;;;;5015878;28;20075;-84
2022/12/12 04:16:21;;;;;;;34.67;14.93;;;-6.60;75.10;;;;;;5017776;28;20038;-86
2022/12/12 04:29:42;;;;;;;27.77;12.05;;;-6.50;73.70;;;;;;4994542;28;20537;-84
2022/12/12 04:32:49;;;;;;;30.60;12.98;;;-6.50;72.40;;;;;;4978221;28;20503;-84
2022/12/12 04:35:53;;;;;;;25.73;13.35;;;-6.60;71.90;;;;;;4993573;28;20093;-85
2022/12/12 04:38:45;;;;;;;24.85;12.18;;;-6.60;71.90;;;;;;4976346;28;20125;-85
2022/12/12 04:41:34;;;;;;;21.65;12.00;;;-6.70;72.20;;;;;;4995025;28;20034;-85
2022/12/12 04:44:22;;;;;;;23.65;11.10;;;-6.70;72.70;;;;;;4977732;28;20136;-85
2022/12/12 04:47:17;;;;;;;24.15;11.55;;;-6.70;72.90;;;;;;4977919;28;20038;-86
2022/12/12 04:50:27;;;;;;;21.42;10.02;;;-6.60;72.40;;;;;;4992702;28;20494;-84
2022/12/12 04:52:55;;;;;;;21.80;10.07;;;-6.60;71.20;;;;;;4999114;28;20038;-84
2022/12/12 04:55:47;;;;;;;21.42;9.65;;;-6.70;70.50;;;;;;4997130;28;20121;-83
2022/12/12 04:58:18;;;;;;;18.98;9.82;;;-6.80;70.50;;;;;;5029823;28;20030;-84
2022/12/12 05:01:07;;;;;;;26.25;10.65;;;-6.70;70.50;;;;;;5015446;28;20037;-84
2022/12/12 05:03:49;;;;;;;20.00;9.57;;;-6.60;70.00;;;;;;4997140;28;20042;-84
2022/12/12 05:06:53;;;;;;;20.95;9.52;;;-6.60;68.90;;;;;;5014002;28;20037;-84
2022/12/12 05:09:22;;;;;;;17.77;8.85;;;-6.60;68.40;;;;;;5013933;28;20398;-84
2022/12/12 05:11:49;;;;;;;17.00;8.25;;;-6.60;67.90;;;;;;5014828;28;20034;-82
2022/12/12 05:14:17;;;;;;;18.83;8.05;;;-6.60;67.40;;;;;;5013955;28;20119;-82
2022/12/12 05:16:54;;;;;;;17.25;7.20;;;-6.70;66.60;;;;;;5025887;28;20038;-84
2022/12/12 05:19:40;;;;;;;14.38;6.65;;;-6.80;66.50;;;;;;5026417;28;20030;-84
2022/12/12 05:22:12;;;;;;;14.63;6.65;;;-7.00;67.70;;;;;;5014444;28;20030;-85
2022/12/12 05:24:38;;;;;;;14.57;6.80;;;-7.00;69.00;;;;;;5010656;28;20045;-84
2022/12/12 05:27:06;;;;;;;14.60;7.07;;;-7.00;68.90;;;;;;5012889;28;20022;-86
2022/12/12 05:29:53;;;;;;;17.35;6.70;;;-7.00;68.40;;;;;;5012859;28;20068;-86
2022/12/12 05:33:08;;;;;;;13.70;6.28;;;-7.00;68.70;;;;;;5014261;28;20033;-87
2022/12/12 05:35:34;;;;;;;11.15;5.65;;;-7.00;70.10;;;;;;5014504;28;20525;-84
2022/12/12 05:38:49;;;;;;;13.82;6.28;;;-7.10;71.60;;;;;;5012940;28;20029;-83
2022/12/12 05:41:38;;;;;;;12.27;6.10;;;-7.00;71.00;;;;;;5013866;28;20168;-84
2022/12/12 05:44:10;;;;;;;12.43;5.60;;;-6.90;70.80;;;;;;4996229;28;20384;-85
2022/12/12 05:46:36;;;;;;;12.50;6.05;;;-7.00;70.50;;;;;;5013454;28;20487;-85
2022/12/12 05:49:33;;;;;;;13.88;6.15;;;-7.00;70.70;;;;;;5024443;28;20037;-86
2022/12/12 05:52:06;;;;;;;11.73;5.80;;;-7.10;71.20;;;;;;5013098;28;20030;-85
2022/12/12 05:54:42;;;;;;;15.48;6.70;;;-7.10;72.20;;;;;;5027614;28;20030;-86
2022/12/12 05:57:12;;;;;;;15.88;6.20;;;-7.10;72.50;;;;;;5013494;28;20453;-85
2022/12/12 06:00:07;;;;;;;15.88;6.22;;;-7.10;72.20;;;;;;5016344;28;20140;-85
2022/12/12 06:03:15;;;;;;;13.57;6.60;;;-7.00;72.60;;;;;;5015306;28;20503;-84
2022/12/12 06:06:52;;;;;;;13.55;7.60;;;-7.00;71.40;;;;;;5029461;28;20046;-84
2022/12/12 06:10:27;;;;;;;19.13;8.25;;;-7.00;70.80;;;;;;5021712;28;20022;-84
2022/12/12 06:14:09;;;;;;;25.20;12.18;;;-6.90;70.70;;;;;;5022235;28;20498;-84
2022/12/12 06:17:00;;;;;;;36.65;18.35;;;-7.00;69.60;;;;;;5003712;28;20069;-82
2022/12/12 06:19:41;;;;;;;34.78;16.83;;;-7.20;68.80;;;;;;5029285;28;20034;-83
2022/12/12 06:22:09;;;;;;;40.25;20.05;;;-7.30;68.80;;;;;;5016277;28;20029;-84
2022/12/12 06:24:44;;;;;;;41.90;21.00;;;-7.20;68.90;;;;;;5016327;28;20084;-85
2022/12/12 06:27:19;;;;;;;47.03;22.63;;;-7.20;68.50;;;;;;5023547;28;20437;-85
2022/12/12 06:29:49;;;;;;;34.55;18.98;;;-7.30;68.50;;;;;;5018943;28;20132;-83
2022/12/12 06:32:15;;;;;;;35.80;18.08;;;-7.30;68.60;;;;;;5018948;28;20109;-84
2022/12/12 06:34:57;;;;;;;38.83;19.25;;;-7.30;68.40;;;;;;5018331;28;20032;-85
2022/12/12 06:37:36;;;;;;;39.47;19.67;;;-7.40;68.20;;;;;;5000007;28;20029;-86
2022/12/12 06:40:04;;;;;;;40.28;18.42;;;-7.40;68.50;;;;;;5019154;28;20536;-87
2022/12/12 06:42:32;;;;;;;45.10;20.00;;;-7.40;68.30;;;;;;5000003;28;20034;-84
2022/12/12 06:44:58;;;;;;;43.92;20.52;;;-7.30;68.30;;;;;;5015775;28;20037;-86
2022/12/12 06:47:23;;;;;;;34.60;17.10;;;-7.30;68.80;;;;;;5015729;28;20026;-85
2022/12/12 06:49:49;;;;;;;36.90;17.10;;;-7.30;68.20;;;;;;5015764;28;20026;-85
2022/12/12 06:52:15;;;;;;;35.53;17.55;;;-7.20;68.40;;;;;;4999462;28;20030;-85
2022/12/12 06:54:40;;;;;;;31.42;15.30;;;-7.20;68.10;;;;;;5015731;28;20030;-85
2022/12/12 06:57:08;;;;;;;35.42;15.70;;;-7.20;67.90;;;;;;4997322;28;20034;-85
2022/12/12 07:00:06;;;;;;;32.78;14.90;;;-7.10;68.30;;;;;;5015429;28;20513;-85
2022/12/12 07:02:39;;;;;;;23.50;12.13;;;-7.00;68.30;;;;;;5015632;28;20021;-86
2022/12/12 07:05:36;;;;;;;27.10;12.55;;;-7.10;68.10;;;;;;5015773;28;20046;-85
2022/12/12 07:08:34;;;;;;;20.60;10.05;;;-7.00;68.10;;;;;;5019220;28;20097;-86
2022/12/12 07:11:26;;;;;;;23.83;10.95;;;-7.00;67.80;;;;;;5016613;28;20056;-85
2022/12/12 07:14:18;;;;;;;20.45;10.27;;;-7.00;67.30;;;;;;5015934;28;20037;-84
2022/12/12 07:16:47;;;;;;;21.05;10.90;;;-7.00;67.30;;;;;;5016428;28;20120;-85
2022/12/12 07:19:21;;;;;;;21.48;10.75;;;-7.00;67.40;;;;;;5017540;28;20372;-85
2022/12/12 07:21:51;;;;;;;19.63;9.45;;;-7.00;67.40;;;;;;5016943;28;20029;-85
2022/12/12 07:24:17;;;;;;;19.88;9.00;;;-7.00;67.60;;;;;;5032051;28;20494;-85
2022/12/12 07:26:43;;;;;;;17.52;9.38;;;-7.00;68.20;;;;;;5015563;28;20034;-85
2022/12/12 07:29:09;;;;;;;18.23;9.48;;;-7.10;68.10;;;;;;5014960;28;20115;-85
2022/12/12 07:31:35;;;;;;;18.75;10.50;;;-7.10;69.10;;;;;;5015420;28;20116;-85
2022/12/12 07:34:05;;;;;;;19.33;10.50;;;-7.00;68.30;;;;;;5019843;28;20038;-84
2022/12/12 07:36:37;;;;;;;21.10;10.50;;;-6.90;68.10;;;;;;5022309;28;20030;-84
2022/12/12 07:39:08;;;;;;;22.08;10.13;;;-6.90;67.30;;;;;;5019738;28;20026;-84
2022/12/12 07:42:08;;;;;;;18.08;9.13;;;-6.80;66.90;;;;;;5017942;28;20038;-85
2022/12/12 07:44:54;;;;;;;21.60;9.57;;;-6.90;66.20;;;;;;5015104;28;20030;-84
2022/12/12 07:47:19;;;;;;;19.70;9.63;;;-6.90;66.70;;;;;;5015160;28;20084;-85
2022/12/12 07:49:45;;;;;;;21.33;8.90;;;-6.80;66.90;;;;;;5015114;28;20109;-85
2022/12/12 07:52:11;;;;;;;17.90;9.25;;;-6.70;67.30;;;;;;5014708;28;20089;-84
2022/12/12 07:54:36;;;;;;;20.55;9.82;;;-6.50;67.10;;;;;;5015912;28;20029;-86
2022/12/12 07:57:02;;;;;;;22.70;11.10;;;-6.40;66.60;;;;;;5035440;28;20072;-84
2022/12/12 07:59:27;;;;;;;21.60;10.52;;;-6.40;65.80;;;;;;5037724;28;20029;-85
2022/12/12 08:01:54;;;;;;;22.90;10.70;;;-6.50;66.00;;;;;;5038278;28;20082;-86
2022/12/12 08:04:20;;;;;;;19.60;9.82;;;-6.40;66.20;;;;;;5019206;28;20056;-87
2022/12/12 08:06:47;;;;;;;22.92;11.07;;;-6.40;66.80;;;;;;5016805;28;20514;-86
2022/12/12 08:09:12;;;;;;;19.48;9.70;;;-6.30;66.30;;;;;;5015063;28;20054;-84
2022/12/12 08:11:39;;;;;;;18.42;10.43;;;-6.30;65.50;;;;;;5015561;28;20111;-82
2022/12/12 08:14:07;;;;;;;23.90;11.73;;;-6.40;65.40;;;;;;5020775;28;20026;-85
2022/12/12 08:16:33;;;;;;;23.20;11.88;;;-6.40;65.60;;;;;;5015109;28;20060;-83
2022/12/12 08:18:58;;;;;;;24.73;14.55;;;-6.30;65.90;;;;;;5030820;28;20132;-85
2022/12/12 08:21:25;;;;;;;32.20;17.10;;;-6.10;65.80;;;;;;5014430;28;20022;-83
2022/12/12 08:23:54;;;;;;;38.55;20.15;;;-6.10;65.30;;;;;;5015602;28;20038;-83
2022/12/12 08:26:20;;;;;;;40.45;23.00;;;-6.00;65.00;;;;;;5014919;28;20026;-83
2022/12/12 08:28:48;;;;;;;44.30;20.58;;;-6.10;65.20;;;;;;5031081;28;20046;-83
2022/12/12 08:31:15;;;;;;;43.65;18.90;;;-6.10;65.60;;;;;;5013296;28;20033;-85
2022/12/12 08:33:41;;;;;;;35.55;18.75;;;-6.00;66.10;;;;;;4998247;28;20029;-85
2022/12/12 08:36:30;;;;;;;35.00;17.42;;;-5.90;65.50;;;;;;5030866;28;20026;-86
2022/12/12 08:38:57;;;;;;;32.03;17.10;;;-5.80;65.60;;;;;;5014919;28;20029;-85
2022/12/12 08:41:24;;;;;;;30.60;16.08;;;-5.60;65.00;;;;;;5014104;28;20504;-84
2022/12/12 08:43:50;;;;;;;26.77;14.70;;;-5.40;64.30;;;;;;5013266;28;20030;-83
2022/12/12 08:46:18;;;;;;;26.80;13.35;;;-5.20;63.80;;;;;;5013026;28;20471;-85
2022/12/12 08:48:44;;;;;;;23.92;13.93;;;-4.90;63.20;;;;;;5013776;28;20018;-82
2022/12/12 08:51:10;;;;;;;31.02;14.70;;;-4.70;61.90;;;;;;5014176;28;20109;-84
2022/12/12 08:53:37;;;;;;;23.75;12.68;;;-4.40;61.20;;;;;;5015432;28;20046;-84
2022/12/12 08:56:02;;;;;;;26.50;13.68;;;-4.40;60.80;;;;;;5017595;28;20064;-85
2022/12/12 08:58:28;;;;;;;25.92;13.48;;;-4.20;60.30;;;;;;5014404;28;20064;-84
2022/12/12 09:00:55;;;;;;;22.88;12.15;;;-3.90;59.90;;;;;;5013657;28;20049;-83
2022/12/12 09:03:22;;;;;;;21.70;11.55;;;-3.50;64.40;;;;;;5013733;28;20517;-83
2022/12/12 09:05:58;;;;;;;26.83;12.32;;;-3.10;63.70;;;;;;5012759;28;20069;-80
2022/12/12 09:08:23;;;;;;;21.35;11.73;;;-2.70;63.90;;;;;;5012486;28;20088;-79
2022/12/12 09:10:52;;;;;;;23.20;10.23;;;-2.40;62.70;;;;;;5012401;28;20026;-84
2022/12/12 09:13:41;;;;;;;19.05;10.32;;;-2.00;60.10;;;;;;4996156;28;20038;-83
2022/12/12 09:16:08;;;;;;;21.30;11.00;;;-1.60;59.00;;;;;;5012605;28;20025;-82
2022/12/12 09:18:48;;;;;;;20.20;10.93;;;-1.20;56.60;;;;;;5012412;28;20022;-84
2022/12/12 09:21:15;;;;;;;18.98;10.48;;;-0.90;54.20;;;;;;4996442;28;20030;-82
2022/12/12 09:23:41;;;;;;;22.17;10.35;;;-0.80;52.80;;;;;;4996824;28;20505;-82
2022/12/12 09:26:08;;;;;;;25.02;10.98;;;-0.60;51.50;;;;;;5012678;28;20034;-80
2022/12/12 09:28:34;;;;;;;21.55;10.32;;;-0.40;52.20;;;;;;5012569;28;20455;-82
2022/12/12 09:31:02;;;;;;;21.77;10.18;;;-0.10;51.00;;;;;;5012922;28;20025;-83
2022/12/12 09:33:27;;;;;;;19.33;10.30;;;0.20;50.50;;;;;;4996639;28;20052;-77
2022/12/12 09:36:01;;;;;;;19.23;10.63;;;0.60;56.00;;;;;;5012145;28;20022;-78
2022/12/12 09:38:27;;;;;;;19.77;9.85;;;1.10;56.20;;;;;;5012016;28;20079;-77
2022/12/12 09:40:53;;;;;;;21.58;10.65;;;1.60;56.50;;;;;;5012234;28;20056;-76
2022/12/12 09:43:25;;;;;;;20.88;10.23;;;2.20;56.60;;;;;;5014260;28;20530;-77
2022/12/12 09:45:51;;;;;;;22.65;11.07;;;2.60;52.70;;;;;;4999229;28;20046;-77
2022/12/12 09:48:31;;;;;;;17.30;9.70;;;2.90;51.20;;;;;;5015733;28;20022;-77
2022/12/12 09:50:57;;;;;;;18.33;10.07;;;3.20;49.70;;;;;;5015626;28;20033;-77
2022/12/12 09:53:25;;;;;;;16.30;9.05;;;3.30;45.30;;;;;;5015612;28;20387;-78
2022/12/12 09:56:16;;;;;;;16.80;9.25;;;3.40;48.20;;;;;;5015494;28;20033;-78
2022/12/12 09:59:04;;;;;;;12.55;7.82;;;3.60;48.80;;;;;;5017180;28;20044;-81
2022/12/12 10:01:52;;;;;;;12.98;7.35;;;3.70;41.70;;;;;;5015656;28;20026;-82
2022/12/12 10:04:41;;;;;;;14.02;7.43;;;3.40;39.90;;;;;;5015723;28;20541;-82
2022/12/12 10:07:19;;;;;;;10.52;6.32;;;3.10;40.50;;;;;;4999101;28;20030;-81
2022/12/12 10:10:22;;;;;;;16.65;9.05;;;3.00;41.80;;;;;;5015521;28;20026;-82
2022/12/12 10:13:26;;;;;;;16.80;8.68;;;3.10;41.00;;;;;;5038144;28;20033;-82
2022/12/12 10:16:13;;;;;;;12.70;7.63;;;3.30;40.90;;;;;;5041218;28;20037;-82
2022/12/12 10:18:45;;;;;;;;;;;3.40;40.40;;;;;;5028723;28;20033;-81
2022/12/12 10:21:33;;;;;;;15.98;8.18;;;3.30;40.50;;;;;;5028983;28;19912;-81
2022/12/12 10:24:11;;;;;;;15.77;8.30;;;3.30;40.90;;;;;;5010064;28;20041;-84
2022/12/12 10:26:45;;;;;;;20.20;10.10;;;3.50;41.50;;;;;;5057483;28;20033;-83
2022/12/12 10:29:34;;;;;;;17.13;9.90;;;3.90;40.60;;;;;;5038025;28;20122;-82
2022/12/12 10:32:52;;;;;;;15.88;9.90;;;3.90;39.70;;;;;;5036489;28;20037;-81
2022/12/12 10:35:42;;;;;;;17.23;11.20;;;4.10;39.40;;;;;;5050307;28;20029;-83
2022/12/12 10:38:50;;;;;;;23.70;11.05;;;4.30;38.40;;;;;;5053991;28;20413;-81
2022/12/12 10:41:50;;;;;;;17.30;9.30;;;4.50;38.30;;;;;;5055544;28;20508;-82
2022/12/12 10:44:37;;;;;;;15.75;8.68;;;4.70;37.80;;;;;;5036245;28;20045;-82
2022/12/12 10:47:25;;;;;;;16.38;9.20;;;5.10;36.80;;;;;;5039451;28;20117;-86
2022/12/12 10:50:33;;;;;;;19.27;9.85;;;5.40;36.30;;;;;;5035230;28;20029;-86
2022/12/12 10:53:07;;;;;;;16.17;9.45;;;5.80;35.50;;;;;;5009034;28;20144;-86
2022/12/12 10:56:22;;;;;;;16.85;9.45;;;6.20;34.40;;;;;;5036884;28;20071;-82
2022/12/12 10:59:22;;;;;;;12.95;8.20;;;6.70;33.80;;;;;;5034018;28;20035;-83
2022/12/12 11:02:00;;;;;;;18.02;9.63;;;7.20;33.00;;;;;;5020259;28;20037;-84
2022/12/12 11:04:34;;;;;;;15.85;9.35;;;7.80;31.90;;;;;;5034429;28;20405;-85
2022/12/12 11:08:11;;;;;;;19.23;10.25;;;8.60;30.80;;;;;;5036581;28;20075;-87
2022/12/12 11:11:06;;;;;;;17.40;9.88;;;9.00;29.20;;;;;;5035394;28;20042;-86
2022/12/12 11:14:06;;;;;;;17.00;9.45;;;9.80;28.10;;;;;;5042676;28;20048;-86
2022/12/12 11:16:57;;;;;;;18.95;10.57;;;10.70;27.00;;;;;;5037765;28;20025;-86
2022/12/12 11:19:47;;;;;;;15.00;9.40;;;11.70;25.00;;;;;;5036373;28;20032;-84
2022/12/12 11:22:15;;;;;;;17.02;10.70;;;12.00;24.00;;;;;;5035395;28;20060;-81
2022/12/12 11:24:47;;;;;;;18.27;9.80;;;12.70;22.90;;;;;;5035255;28;20049;-82
2022/12/12 11:27:39;;;;;;;16.73;9.90;;;12.80;22.20;;;;;;5027861;28;20024;-82
2022/12/12 11:30:21;;;;;;;15.68;9.93;;;13.10;21.00;;;;;;5014415;28;20050;-87
2022/12/12 11:32:50;;;;;;;18.95;9.98;;;13.60;20.00;;;;;;5017924;28;20026;-86
2022/12/12 11:35:31;;;;;;;13.80;8.90;;;14.00;20.00;;;;;;5003973;28;20030;-86
2022/12/12 11:38:21;;;;;;;14.57;8.95;;;13.90;19.70;;;;;;5019174;28;20022;-86
2022/12/12 11:41:01;;;;;;;13.35;9.23;;;14.30;19.00;;;;;;5021760;28;20069;-85
2022/12/12 11:43:43;;;;;;;15.20;10.00;;;14.10;19.10;;;;;;5000763;28;20046;-85
2022/12/12 11:46:14;;;;;;;13.95;9.30;;;15.30;18.70;;;;;;5016411;28;20084;-85
2022/12/12 11:49:00;;;;;;;16.30;9.50;;;16.60;17.40;;;;;;5016824;28;20463;-86
2022/12/12 11:51:45;;;;;;;14.45;10.27;;;17.40;15.70;;;;;;5016578;28;20256;-83
2022/12/12 11:54:32;;;;;;;14.07;9.38;;;18.00;14.60;;;;;;4998658;28;20026;-83
2022/12/12 11:57:23;;;;;;;14.57;9.15;;;18.70;14.00;;;;;;4982662;28;20026;-83
2022/12/12 12:00:08;;;;;;;12.02;8.80;;;19.40;13.00;;;;;;5003731;28;20397;-84
2022/12/12 12:03:08;;;;;;;16.80;9.23;;;20.20;12.50;;;;;;5014975;28;20018;-84
2022/12/12 12:06:14;;;;;;;14.00;9.23;;;21.00;11.90;;;;;;5014085;28;20042;-86
2022/12/12 12:09:26;;;;;;;13.98;9.23;;;20.70;11.00;;;;;;5001899;28;20076;-87
2022/12/12 12:12:35;;;;;;;17.10;9.75;;;19.10;11.70;;;;;;5014753;28;20041;-83
2022/12/12 12:15:43;;;;;;;13.98;9.55;;;19.10;12.40;;;;;;5014356;28;20030;-87
2022/12/12 12:19:02;;;;;;;13.52;9.32;;;19.90;12.60;;;;;;5017840;28;20060;-85
2022/12/12 12:22:07;;;;;;;13.30;10.20;;;20.50;11.80;;;;;;5015021;28;20076;-89
2022/12/12 12:24:51;;;;;;;13.60;9.80;;;20.80;10.50;;;;;;5017598;28;20037;-88
2022/12/12 12:27:46;;;;;;;16.48;11.63;;;20.20;11.10;;;;;;5017830;28;20036;-89
2022/12/12 12:30:50;;;;;;;15.15;9.85;;;19.80;11.40;;;;;;5017169;28;20057;-86
2022/12/12 12:33:51;;;;;;;14.50;8.60;;;20.50;11.50;;;;;;5017033;28;20127;-88
2022/12/12 12:36:39;;;;;;;9.38;7.85;;;21.60;10.20;;;;;;5017087;28;20269;-89
2022/12/12 12:39:51;;;;;;;11.75;8.45;;;22.80;9.10;;;;;;5016240;28;20076;-89
2022/12/12 12:42:56;;;;;;;12.15;7.78;;;23.20;8.70;;;;;;5015671;28;20044;-86
2022/12/12 12:45:31;;;;;;;11.00;8.43;;;23.90;8.20;;;;;;5014372;28;20116;-85
2022/12/12 12:48:10;;;;;;;10.77;8.27;;;24.40;7.10;;;;;;5017998;28;20038;-85
2022/12/12 12:50:49;;;;;;;12.07;8.60;;;24.90;6.80;;;;;;4998842;28;20037;-86
2022/12/12 12:53:43;;;;;;;13.38;8.13;;;23.50;6.80;;;;;;5015330;28;20049;-85
2022/12/12 12:56:22;;;;;;;11.52;7.22;;;22.60;8.00;;;;;;5014641;28;20467;-86
2022/12/12 12:59:16;;;;;;;9.75;8.20;;;23.60;8.30;;;;;;5014765;28;20065;-87
2022/12/12 13:01:49;;;;;;;11.73;7.32;;;24.70;7.10;;;;;;5014826;28;20034;-87
2022/12/12 13:04:57;;;;;;;9.82;7.10;;;25.60;6.40;;;;;;5014568;28;20064;-86
2022/12/12 13:07:58;;;;;;;13.73;8.55;;;26.50;5.60;;;;;;5011988;28;20038;-86
2022/12/12 13:10:26;;;;;;;16.02;9.38;;;27.00;5.10;;;;;;5014431;28;20049;-85
2022/12/12 13:13:23;;;;;;;13.70;9.80;;;26.40;4.70;;;;;;5012332;28;20421;-85
2022/12/12 13:16:01;;;;;;;14.52;10.32;;;25.90;4.90;;;;;;5015052;28;20124;-85
2022/12/12 13:18:39;;;;;;;12.27;9.68;;;24.60;6.10;;;;;;5031513;28;20482;-83
2022/12/12 13:21:16;;;;;;;11.52;9.45;;;24.10;6.90;;;;;;5031754;28;20032;-83
2022/12/12 13:23:54;;;;;;;12.70;8.90;;;25.40;6.40;;;;;;5032078;28;20067;-83
2022/12/12 13:26:36;;;;;;;14.70;8.82;;;26.20;5.90;;;;;;5031659;28;20026;-82
2022/12/12 13:29:24;;;;;;;10.75;8.52;;;26.70;5.00;;;;;;5031274;28;20059;-81
2022/12/12 13:32:19;;;;;;;10.60;8.27;;;27.10;5.00;;;;;;5031384;28;20075;-82
2022/12/12 13:34:49;;;;;;;10.88;7.68;;;27.70;4.40;;;;;;5031500;28;20034;-80
2022/12/12 13:37:19;;;;;;;13.30;8.05;;;27.10;4.30;;;;;;5031546;28;20036;-80
2022/12/12 13:39:45;;;;;;;9.88;7.75;;;26.60;4.20;;;;;;5015356;28;20026;-81
2022/12/12 13:42:13;;;;;;;9.85;8.25;;;27.10;4.60;;;;;;5031440;28;20017;-82
2022/12/12 13:44:47;;;;;;;14.60;9.55;;;27.50;4.30;;;;;;5032077;28;20068;-83
2022/12/12 13:47:22;;;;;;;13.68;10.00;;;26.50;4.30;;;;;;5036992;28;20089;-83
2022/12/12 13:50:19;;;;;;;;;;;26.10;5.10;;;;;;5041083;28;20050;-86
2022/12/12 13:53:05;;;;;;;12.40;9.80;;;25.90;4.90;;;;;;5049240;28;19905;-83
2022/12/12 13:55:32;;;;;;;10.52;9.18;;;26.00;5.40;;;;;;5032356;28;20033;-85
2022/12/12 13:58:04;;;;;;;11.48;7.82;;;26.30;6.00;;;;;;5033915;28;20025;-82
2022/12/12 14:00:40;;;;;;;11.15;8.65;;;26.30;5.30;;;;;;5033124;28;20032;-85
2022/12/12 14:03:09;;;;;;;9.50;8.40;;;26.80;5.50;;;;;;5034618;28;20060;-83
2022/12/12 14:05:43;;;;;;;11.25;9.10;;;26.90;4.50;;;;;;5031854;28;20425;-85
2022/12/12 14:08:09;;;;;;;10.77;8.13;;;27.20;4.60;;;;;;5031581;28;20033;-82
2022/12/12 14:10:42;;;;;;;15.70;8.85;;;27.30;4.30;;;;;;5031693;28;20032;-82
2022/12/12 14:13:22;;;;;;;14.52;9.35;;;26.90;3.80;;;;;;5031835;28;20025;-83
2022/12/12 14:16:08;;;;;;;15.95;9.52;;;26.20;4.60;;;;;;5031848;28;20145;-89
2022/12/12 14:19:47;;;;;;;11.52;7.47;;;25.70;4.70;;;;;;5032066;28;20064;-88